createdAt,value
2022-12-14T00:03:57.254Z,-1.00
2022-12-14T00:09:52.006Z,-0.70
2022-12-14T00:15:45.390Z,-0.50
2022-12-14T00:21:38.891Z,-0.70
2022-12-14T00:27:33.625Z,-0.60
2022-12-14T00:33:27.017Z,-0.60
2022-12-14T00:39:20.507Z,-0.60
2022-12-14T00:45:15.221Z,-0.50
2022-12-14T00:51:08.609Z,-0.70
2022-12-14T00:57:01.969Z,-0.60
2022-12-14T01:02:56.748Z,-0.70
2022-12-14T01:08:50.821Z,-0.50
2022-12-14T01:14:44.200Z,-0.60
2022-12-14T01:20:38.985Z,-0.90
2022-12-14T01:26:34.792Z,-0.70
2022-12-14T01:32:28.199Z,-0.50
2022-12-14T01:38:23.438Z,-0.60
2022-12-14T01:44:51.396Z,-0.70
2022-12-14T01:50:47.276Z,-0.50
2022-12-14T01:56:46.271Z,-0.60
2022-12-14T02:02:43.321Z,-0.80
2022-12-14T02:08:38.573Z,-1.00
2022-12-14T02:14:34.855Z,-1.00
2022-12-14T02:20:37.036Z,-1.50
2022-12-14T02:26:49.897Z,-1.00
2022-12-14T02:33:21.436Z,-1.00
2022-12-14T02:39:28.959Z,-0.80
2022-12-14T02:45:28.547Z,-0.90
2022-12-14T02:51:27.706Z,-1.20
2022-12-14T02:57:26.286Z,-0.90
2022-12-14T03:03:19.685Z,-0.90
2022-12-14T03:09:19.371Z,-0.80
2022-12-14T03:15:17.079Z,-0.80
2022-12-14T03:21:15.111Z,-1.10
2022-12-14T03:27:16.260Z,-1.10
2022-12-14T03:33:16.443Z,-1.30
2022-12-14T03:39:13.789Z,-1.40
2022-12-14T03:45:18.952Z,-1.30
2022-12-14T03:51:18.764Z,-1.10
2022-12-14T03:57:19.648Z,-1.10
2022-12-14T04:03:21.593Z,-1.20
2022-12-14T04:09:29.685Z,-1.30
2022-12-14T04:15:44.920Z,-1.30
2022-12-14T04:21:45.225Z,-1.50
2022-12-14T04:27:42.513Z,-1.70
2022-12-14T04:33:48.164Z,-1.60
2022-12-14T04:39:48.856Z,-1.50
2022-12-14T04:45:45.282Z,-1.50
2022-12-14T04:51:47.911Z,-1.30
2022-12-14T04:57:47.114Z,-1.20
2022-12-14T05:03:51.962Z,-1.20
2022-12-14T05:09:55.644Z,-1.10
2022-12-14T05:15:53.076Z,-1.20
2022-12-14T05:21:49.479Z,-1.20
2022-12-14T05:27:42.945Z,-1.10
2022-12-14T05:33:37.264Z,-1.20
2022-12-14T05:39:30.721Z,-1.20
2022-12-14T05:45:24.234Z,-1.20
2022-12-14T05:51:19.376Z,-1.20
2022-12-14T05:57:12.905Z,-1.30
2022-12-14T06:03:05.957Z,-1.30
2022-12-14T06:09:00.363Z,-1.30
2022-12-14T06:14:53.773Z,-1.40
2022-12-14T06:20:47.288Z,-1.40
2022-12-14T06:26:42.351Z,-1.40
2022-12-14T06:32:35.772Z,-1.40
2022-12-14T06:38:29.419Z,-1.30
2022-12-14T06:44:24.317Z,-1.40
2022-12-14T06:50:17.925Z,-1.40
2022-12-14T06:56:12.829Z,-1.40
2022-12-14T07:02:07.432Z,-1.40
2022-12-14T07:08:00.494Z,-1.40
2022-12-14T07:13:54.724Z,-1.40
2022-12-14T07:19:50.079Z,-1.40
2022-12-14T07:25:43.006Z,-1.50
2022-12-14T07:31:36.623Z,-1.50
2022-12-14T07:37:31.526Z,-1.50
2022-12-14T07:43:25.275Z,-1.50
2022-12-14T07:49:18.704Z,-1.50
2022-12-14T07:55:13.521Z,-1.60
2022-12-14T08:01:12.567Z,-1.60
2022-12-14T08:07:05.849Z,-1.60
2022-12-14T08:13:00.776Z,-1.60
2022-12-14T08:18:55.244Z,-1.60
2022-12-14T08:24:49.401Z,-1.60
2022-12-14T08:30:44.588Z,-1.60
2022-12-14T08:36:37.528Z,-1.60
2022-12-14T08:42:30.571Z,-1.50
2022-12-14T08:48:25.605Z,-1.50
2022-12-14T08:54:20.033Z,-1.50
2022-12-14T09:00:14.734Z,-1.50
2022-12-14T09:06:11.984Z,-1.50
2022-12-14T09:12:06.703Z,-1.50
2022-12-14T09:18:00.357Z,-1.50
2022-12-14T09:23:59.324Z,-1.60
2022-12-14T09:29:53.760Z,-1.60
2022-12-14T09:35:47.159Z,-1.30
2022-12-14T09:41:57.739Z,-1.20
2022-12-14T09:47:59.925Z,-1.10
2022-12-14T09:54:02.790Z,-1.00
2022-12-14T09:59:58.037Z,-0.90
2022-12-14T10:06:04.291Z,-0.60
2022-12-14T10:12:06.782Z,-0.40
2022-12-14T10:18:58.350Z,-0.20
2022-12-14T10:24:50.335Z,0.00
2022-12-14T10:30:44.907Z,0.40
2022-12-14T10:36:51.722Z,0.60
2022-12-14T10:42:52.311Z,0.80
2022-12-14T10:48:55.711Z,1.00
2022-12-14T10:54:54.318Z,1.20
2022-12-14T11:00:54.369Z,1.60
2022-12-14T11:06:47.823Z,1.70
2022-12-14T11:12:42.665Z,2.00
2022-12-14T11:18:36.260Z,2.10
2022-12-14T11:24:30.588Z,2.30
2022-12-14T11:30:25.425Z,2.70
2022-12-14T11:36:25.283Z,2.70
2022-12-14T11:42:20.337Z,3.00
2022-12-14T11:48:25.577Z,3.20
2022-12-14T11:54:19.005Z,3.40
2022-12-14T12:00:25.505Z,3.40
2022-12-14T12:06:25.340Z,3.70
2022-12-14T12:12:20.148Z,3.60
2022-12-14T12:18:19.186Z,4.00
2022-12-14T12:24:18.641Z,3.90
2022-12-14T12:30:23.714Z,4.30
2022-12-14T12:36:24.130Z,4.40
2022-12-14T12:42:26.660Z,4.70
2022-12-14T12:48:24.231Z,4.60
2022-12-14T12:54:22.728Z,4.60
2022-12-14T13:00:20.127Z,4.80
2022-12-14T13:06:21.761Z,4.50
2022-12-14T13:12:23.370Z,4.50
2022-12-14T13:18:49.151Z,4.40
2022-12-14T13:24:38.379Z,4.40
2022-12-14T13:30:54.410Z,4.40
2022-12-14T13:37:17.215Z,4.60
2022-12-14T13:43:25.502Z,4.40
2022-12-14T13:49:22.814Z,4.40
2022-12-14T13:55:30.051Z,4.30
2022-12-14T14:01:58.738Z,4.10
2022-12-14T14:07:54.004Z,4.20
2022-12-14T14:14:11.052Z,4.00
2022-12-14T14:20:32.505Z,3.90
2022-12-14T14:26:31.023Z,3.90
2022-12-14T14:32:43.730Z,3.70
2022-12-14T14:38:39.480Z,3.60
2022-12-14T14:44:38.909Z,3.50
2022-12-14T14:50:38.429Z,3.30
2022-12-14T14:56:37.261Z,3.10
2022-12-14T15:02:34.162Z,3.00
2022-12-14T15:08:36.102Z,2.90
2022-12-14T15:14:35.510Z,2.70
2022-12-14T15:20:30.753Z,2.60
2022-12-14T15:26:28.983Z,2.40
2022-12-14T15:32:25.293Z,2.30
2022-12-14T15:38:23.988Z,2.30
2022-12-14T15:44:22.949Z,2.20
2022-12-14T15:50:18.829Z,2.10
2022-12-14T15:56:20.146Z,2.00
2022-12-14T16:02:26.469Z,1.90
2022-12-14T16:08:20.871Z,1.90
2022-12-14T16:14:21.757Z,1.80
2022-12-14T16:20:22.736Z,1.70
2022-12-14T16:26:25.203Z,1.70
2022-12-14T16:32:18.457Z,1.60
2022-12-14T16:38:14.745Z,1.50
2022-12-14T16:44:10.488Z,1.50
2022-12-14T16:50:03.846Z,1.50
2022-12-14T16:56:07.270Z,1.30
2022-12-14T17:02:01.388Z,1.30
2022-12-14T17:07:54.648Z,1.30
2022-12-14T17:13:49.665Z,1.20
2022-12-14T17:19:43.683Z,1.20
2022-12-14T17:25:39.181Z,1.10
2022-12-14T17:31:36.492Z,1.10
2022-12-14T17:37:35.638Z,1.00
2022-12-14T17:43:29.987Z,1.00
2022-12-14T17:49:34.806Z,1.00
2022-12-14T17:55:30.584Z,0.90
2022-12-14T18:01:26.270Z,0.90
2022-12-14T18:07:20.761Z,0.80
2022-12-14T18:13:14.574Z,0.70
2022-12-14T18:19:07.606Z,0.80
2022-12-14T18:25:02.583Z,0.70
2022-12-14T18:30:58.915Z,0.70
2022-12-14T18:36:54.017Z,0.70
2022-12-14T18:42:49.707Z,0.50
2022-12-14T18:48:43.907Z,0.60
2022-12-14T18:54:38.363Z,0.60
2022-12-14T19:00:35.626Z,0.50
2022-12-14T19:06:45.713Z,0.50
2022-12-14T19:12:39.720Z,0.40
2022-12-14T19:18:35.636Z,0.20
2022-12-14T19:24:28.960Z,0.40
2022-12-14T19:30:23.620Z,0.50
2022-12-14T19:36:18.035Z,0.50
2022-12-14T19:42:11.679Z,0.30
2022-12-14T19:48:09.936Z,0.40
2022-12-14T19:54:08.145Z,0.40
2022-12-14T20:00:01.920Z,0.00
2022-12-14T20:06:03.452Z,-0.20
2022-12-14T20:11:58.001Z,0.00
2022-12-14T20:17:51.440Z,-0.50
2022-12-14T20:23:45.273Z,-0.60
2022-12-14T20:29:39.733Z,-0.50
2022-12-14T20:35:35.007Z,-1.10
2022-12-14T20:41:28.965Z,-1.30
2022-12-14T20:47:23.836Z,-1.50
2022-12-14T20:53:17.217Z,-1.30
2022-12-14T20:59:11.411Z,-0.80
2022-12-14T21:05:06.895Z,-0.90
2022-12-14T21:11:24.301Z,-0.70
2022-12-14T21:17:17.427Z,-0.40
2022-12-14T21:23:12.194Z,-0.40
2022-12-14T21:29:06.942Z,-0.30
2022-12-14T21:35:00.423Z,-0.60
2022-12-14T21:41:13.774Z,-0.70
2022-12-14T21:47:09.888Z,-1.10
2022-12-14T21:53:03.413Z,-1.90
2022-12-14T21:58:58.191Z,-2.40
2022-12-14T22:04:56.481Z,-2.60
2022-12-14T22:10:50.330Z,-1.90
2022-12-14T22:16:45.482Z,-1.70
2022-12-14T22:22:39.073Z,-2.10
2022-12-14T22:28:32.457Z,-2.10
2022-12-14T22:34:27.391Z,-2.30
2022-12-14T22:40:20.815Z,-1.70
2022-12-14T22:46:15.354Z,-1.10
2022-12-14T22:52:10.215Z,-1.30
2022-12-14T22:58:03.969Z,-1.30
2022-12-14T23:03:57.261Z,-1.00
2022-12-14T23:10:09.484Z,-0.90
2022-12-14T23:16:20.506Z,-0.80
2022-12-14T23:22:31.301Z,-1.30
2022-12-14T23:28:43.771Z,-0.90
2022-12-14T23:35:01.082Z,-1.60
2022-12-14T23:41:16.906Z,-1.00
2022-12-14T23:47:29.122Z,-0.80
2022-12-14T23:53:40.160Z,-0.70
2022-12-14T23:59:51.304Z,-0.90
